Aérodrome :
LOGIN :

S'inscrire | Disclaimer

   EN    FR    IT 

 










Légende :    VFR   VFR Marginal   IFR   IFR Intensif   IFR Très Intensif
Visi : 
Plafond : 
>= 8 km
>= 3000ft
5 à 8 km
1000 à 3000 ft
1500m à 5 km
500 à 1000 ft
800 à 1500m
200 à 500 ft
< 800m
< 200 ft
Symboles :   Orages  Brouillard  Fortes neiges  Fortes précipitations  Vent > 20 kt
SIGMETs :   Divers  Orages  Givrage  Turbulence  Onde Orograph.  Cendres Volcan.






- Altitude de l'aérodrome : 614 ft
- Code IATA : CRL


EBCI - Charleroi

DERNIER METAR :
  • 250950Z 23015KT CAVOK 17/09 Q1019 NOSIG

METARs EXPIRÉS :
  • 250920Z 22014KT 9999 BKN049 18/10 Q1019 NOSIG
  • 250850Z 22010KT CAVOK 17/10 Q1019 NOSIG
  • 250820Z 22009KT 180V240 CAVOK 16/11 Q1019 NOSIG
  • 250750Z 23010KT CAVOK 15/10 Q1019 NOSIG
  • 250720Z 22008KT CAVOK 16/10 Q1019 NOSIG
  • 250650Z 22010KT CAVOK 14/09 Q1019 NOSIG

TAF TAF EBCI
Valide du 25 à 06h jusqu'au 26 à 12h UTC


250500Z 2506/2612 22009KT 9999 FEW040
PROB30
TEMPO 2515/2602 RA
TEMPO 2602/2610 4000 RADZ BKN006
PROB30
TEMPO 2603/2607 2000 DZRA BKN003



MET'MAP, la Météo Aéronautique d'un coup d'oeil ! - Copyright ORBIFLY Décembre 2007 - Disclaimer

ORBIFLY MET'MAP TEAM :

Programmation & Développement : Alexandra Zaïnal
Sur une idée originale de : Baudouin d'Aumeries
Assistance à la programmation : Marc-Olivier Méhu
Soutien technique & logistique : Manuel Goepfert

Contact : metmap@orbifly.com




SOURCES & CREDITS :

   NOAA